Time;durP1;ratioP1;P1;durP2;ratioP2;P2;SDS_P1;SDS_P2;PMS_P1;PMS_P2;Temp;Humidity;BMP_temperature;BMP_pressure;BME280_temperature;BME280_humidity;BME280_pressure;Samples;Min_cycle;Max_cycle;Signal;HPM_P1;HPM_P2
2022/05/10 00:00:12;;;;;;;11.05;3.63;;;;;;;;;;4932642;29;20028;-77
2022/05/10 00:02:41;;;;;;;9.20;3.53;;;;;;;;;;4936590;29;20487;-76
2022/05/10 00:05:08;;;;;;;9.13;3.60;;;;;;;;;;4936328;29;20031;-77
2022/05/10 00:07:34;;;;;;;8.98;3.60;;;;;;;;;;4951232;29;20043;-76
2022/05/10 00:10:00;;;;;;;7.50;3.70;;;;;;;;;;4919841;29;20058;-76
2022/05/10 00:12:26;;;;;;;9.13;3.22;;;;;;;;;;4951458;29;20072;-77
2022/05/10 00:14:52;;;;;;;9.75;3.38;;;;;;;;;;4936794;29;20027;-79
2022/05/10 00:17:35;;;;;;;7.80;3.72;;;;;;;;;;4933844;29;20034;-77
2022/05/10 00:20:01;;;;;;;7.63;3.33;;;;;;;;;;4917676;29;20032;-77
2022/05/10 00:22:27;;;;;;;10.98;3.55;;;;;;;;;;4932005;29;20514;-77
2022/05/10 00:24:52;;;;;;;9.77;3.75;;;;;;;;;;4931478;29;20134;-77
2022/05/10 00:27:18;;;;;;;5.78;3.55;;;;;;;;;;4917515;29;20461;-78
2022/05/10 00:29:43;;;;;;;8.07;3.92;;;;;;;;;;4916364;29;20535;-77
2022/05/10 00:32:09;;;;;;;10.35;4.03;;;;;;;;;;4915928;29;20067;-78
2022/05/10 00:34:35;;;;;;;7.30;3.00;;;;;;;;;;4934685;29;20028;-77
2022/05/10 00:37:00;;;;;;;9.65;3.35;;;;;;;;;;4936468;29;20036;-78
2022/05/10 00:39:27;;;;;;;7.80;3.45;;;;;;;;;;4936370;29;20063;-77
2022/05/10 00:41:58;;;;;;;13.00;3.33;;;;;;;;;;4935393;29;20039;-78
2022/05/10 00:44:29;;;;;;;7.43;3.67;;;;;;;;;;4934368;29;20032;-79
2022/05/10 00:47:14;;;;;;;13.18;3.78;;;;;;;;;;4934853;29;20055;-79
2022/05/10 00:49:57;;;;;;;9.20;3.28;;;;;;;;;;4930889;29;20023;-79
2022/05/10 00:52:46;;;;;;;6.25;3.10;;;;;;;;;;4935987;29;20106;-79
2022/05/10 00:55:26;;;;;;;8.48;4.38;;;;;;;;;;4950758;29;20027;-79
2022/05/10 00:58:01;;;;;;;5.55;3.10;;;;;;;;;;4935161;29;20042;-78
2022/05/10 01:00:28;;;;;;;10.35;3.20;;;;;;;;;;4935678;29;20036;-77
2022/05/10 01:03:05;;;;;;;8.32;3.55;;;;;;;;;;4935284;29;20340;-75
2022/05/10 01:05:35;;;;;;;9.60;3.38;;;;;;;;;;4923611;29;20083;-75
2022/05/10 01:08:19;;;;;;;8.80;3.25;;;;;;;;;;4950337;29;20087;-75
2022/05/10 01:10:56;;;;;;;6.88;3.35;;;;;;;;;;4935444;29;20024;-75
2022/05/10 01:13:28;;;;;;;11.13;3.65;;;;;;;;;;4933883;29;20487;-75
2022/05/10 01:16:16;;;;;;;9.32;3.80;;;;;;;;;;4934971;29;20063;-76
2022/05/10 01:18:42;;;;;;;8.23;3.85;;;;;;;;;;4928102;29;20044;-76
2022/05/10 01:21:30;;;;;;;9.60;4.20;;;;;;;;;;4931589;29;20079;-75
2022/05/10 01:23:56;;;;;;;;;;;;;;;;;;4931528;29;20122;-77
2022/05/10 01:26:40;;;;;;;10.77;5.10;;;;;;;;;;4935492;29;20438;-79
2022/05/10 01:29:08;;;;;;;8.80;4.57;;;;;;;;;;4918530;29;20035;-79
2022/05/10 01:31:39;;;;;;;11.55;4.97;;;;;;;;;;4950140;29;20052;-77
2022/05/10 01:34:14;;;;;;;8.85;4.90;;;;;;;;;;4949639;29;20027;-79
2022/05/10 01:36:46;;;;;;;10.85;4.88;;;;;;;;;;4935056;29;20027;-78
2022/05/10 01:39:18;;;;;;;9.68;4.75;;;;;;;;;;4932074;29;20015;-76
2022/05/10 01:41:48;;;;;;;11.77;5.35;;;;;;;;;;4934780;29;20074;-76
2022/05/10 01:44:16;;;;;;;10.65;4.90;;;;;;;;;;4934396;29;20027;-75
2022/05/10 01:46:43;;;;;;;10.27;4.97;;;;;;;;;;4934852;29;20023;-76
2022/05/10 01:49:32;;;;;;;8.52;4.80;;;;;;;;;;4933757;29;20027;-78
2022/05/10 01:55:08;;;;;;;18.55;5.63;;;;;;;;;;4912859;29;20241;-82
2022/05/10 01:57:35;;;;;;;13.35;4.68;;;;;;;;;;4920509;29;20451;-81
2022/05/10 02:00:30;;;;;;;11.73;4.70;;;;;;;;;;4899016;29;20040;-81
2022/05/10 02:03:10;;;;;;;13.02;5.47;;;;;;;;;;4907214;29;20135;-81
2022/05/10 02:05:54;;;;;;;8.75;5.18;;;;;;;;;;4930404;29;20040;-81
2022/05/10 02:08:30;;;;;;;11.80;5.18;;;;;;;;;;4915895;29;20115;-81
2022/05/10 02:10:59;;;;;;;13.15;5.05;;;;;;;;;;4914641;29;20036;-85
2022/05/10 02:13:25;;;;;;;;;;;;;;;;;;4898088;29;20020;-84
2022/05/10 02:15:50;;;;;;;11.85;5.05;;;;;;;;;;4892128;29;19998;-84
2022/05/10 02:18:35;;;;;;;11.63;5.25;;;;;;;;;;4930612;29;20506;-83
2022/05/10 02:21:04;;;;;;;10.20;5.05;;;;;;;;;;4914799;29;20044;-85
2022/05/10 02:23:29;;;;;;;;;;;;;;;;;;4915653;29;20036;-83
2022/05/10 02:26:02;;;;;;;11.32;4.78;;;;;;;;;;4930323;29;20363;-84
2022/05/10 02:28:40;;;;;;;11.75;5.10;;;;;;;;;;4931228;29;20040;-86
2022/05/10 02:31:12;;;;;;;11.25;5.47;;;;;;;;;;4910441;29;20029;-85
2022/05/10 02:33:38;;;;;;;10.13;5.18;;;;;;;;;;4917891;29;20052;-85
2022/05/10 02:36:03;;;;;;;11.20;5.90;;;;;;;;;;4902924;29;20067;-85
2022/05/10 02:38:36;;;;;;;16.55;5.53;;;;;;;;;;4918168;29;20075;-83
2022/05/10 02:41:03;;;;;;;12.45;5.35;;;;;;;;;;4918481;29;20095;-83
2022/05/10 02:43:31;;;;;;;12.75;5.75;;;;;;;;;;4917729;29;20032;-81
2022/05/10 02:45:57;;;;;;;12.40;5.80;;;;;;;;;;4902837;29;20028;-83
2022/05/10 02:48:24;;;;;;;12.50;6.30;;;;;;;;;;4917948;29;20024;-84
2022/05/10 02:50:50;;;;;;;11.05;5.28;;;;;;;;;;4917785;29;20067;-85
2022/05/10 02:53:17;;;;;;;11.75;5.30;;;;;;;;;;4933272;29;20036;-82
2022/05/10 02:55:48;;;;;;;11.20;5.80;;;;;;;;;;4902904;29;20035;-82
2022/05/10 02:58:22;;;;;;;9.95;4.72;;;;;;;;;;4934904;29;20032;-84
2022/05/10 03:00:50;;;;;;;13.70;5.75;;;;;;;;;;4931091;29;20027;-85
2022/05/10 03:03:19;;;;;;;13.45;4.75;;;;;;;;;;4921333;29;20112;-91
2022/05/10 03:05:45;;;;;;;10.20;4.75;;;;;;;;;;4906415;29;20121;-91
2022/05/10 03:08:11;;;;;;;12.60;4.82;;;;;;;;;;4900531;29;20168;-91
2022/05/10 03:10:36;;;;;;;9.35;4.70;;;;;;;;;;4900360;29;20032;-89
2022/05/10 03:13:05;;;;;;;13.10;5.10;;;;;;;;;;4901400;29;20044;-91
2022/05/10 03:15:30;;;;;;;13.73;5.38;;;;;;;;;;4900301;29;20036;-85
2022/05/10 03:17:56;;;;;;;11.82;4.88;;;;;;;;;;4912045;29;20048;-86
2022/05/10 03:20:22;;;;;;;11.27;5.22;;;;;;;;;;4917188;29;20406;-87
2022/05/10 03:22:47;;;;;;;12.38;5.15;;;;;;;;;;4898357;29;20103;-86
2022/05/10 03:25:13;;;;;;;10.10;5.22;;;;;;;;;;4883162;29;20032;-85
2022/05/10 03:27:40;;;;;;;12.13;5.22;;;;;;;;;;4882888;29;20533;-85
2022/05/10 03:30:06;;;;;;;12.70;5.50;;;;;;;;;;4913931;29;20060;-86
2022/05/10 03:32:32;;;;;;;16.55;5.18;;;;;;;;;;4882633;29;20445;-87
2022/05/10 03:34:58;;;;;;;12.65;5.15;;;;;;;;;;4905973;29;20044;-87
2022/05/10 03:37:28;;;;;;;11.15;5.40;;;;;;;;;;4911539;29;20033;-86
2022/05/10 03:39:54;;;;;;;10.05;5.35;;;;;;;;;;4913524;29;20040;-85
2022/05/10 03:42:20;;;;;;;12.50;5.68;;;;;;;;;;4899371;29;20635;-85
2022/05/10 03:44:52;;;;;;;15.68;5.40;;;;;;;;;;4898962;29;20032;-85
2022/05/10 03:47:18;;;;;;;15.07;5.65;;;;;;;;;;4882752;29;20397;-87
2022/05/10 03:49:44;;;;;;;11.00;5.70;;;;;;;;;;4899236;29;20020;-86
2022/05/10 03:52:12;;;;;;;;;;;;;;;;;;4923788;29;20177;-86
2022/05/10 03:54:38;;;;;;;17.17;4.75;;;;;;;;;;4915831;29;20009;-85
2022/05/10 03:57:04;;;;;;;9.90;4.85;;;;;;;;;;4917051;29;20028;-89
2022/05/10 03:59:29;;;;;;;14.73;5.80;;;;;;;;;;4932758;29;20040;-87
2022/05/10 04:01:54;;;;;;;13.90;5.82;;;;;;;;;;4932913;29;20511;-88
2022/05/10 04:04:20;;;;;;;9.65;5.15;;;;;;;;;;4916752;29;20032;-89
2022/05/10 04:06:45;;;;;;;11.25;4.85;;;;;;;;;;4901179;29;20036;-86
2022/05/10 04:09:14;;;;;;;12.15;5.40;;;;;;;;;;4900081;29;20205;-89
2022/05/10 04:11:40;;;;;;;13.48;5.15;;;;;;;;;;4898568;29;20036;-87
2022/05/10 04:14:05;;;;;;;11.50;5.40;;;;;;;;;;4897804;29;20035;-89
2022/05/10 04:16:31;;;;;;;12.68;5.53;;;;;;;;;;4898323;29;20044;-88
2022/05/10 04:18:56;;;;;;;11.55;5.47;;;;;;;;;;4898883;29;20040;-87
2022/05/10 04:21:24;;;;;;;15.98;5.32;;;;;;;;;;4913170;29;20082;-87
2022/05/10 04:23:49;;;;;;;10.00;5.22;;;;;;;;;;4897806;29;20588;-90
2022/05/10 04:26:16;;;;;;;18.58;5.75;;;;;;;;;;4901868;29;20032;-92
2022/05/10 04:28:42;;;;;;;12.40;5.85;;;;;;;;;;4908965;29;20507;-89
2022/05/10 04:31:08;;;;;;;14.70;5.88;;;;;;;;;;4916380;29;20028;-89
2022/05/10 04:33:34;;;;;;;15.18;7.03;;;;;;;;;;4916252;29;20035;-87
2022/05/10 04:36:00;;;;;;;18.38;5.20;;;;;;;;;;4932024;29;20412;-86
2022/05/10 04:38:25;;;;;;;13.55;5.63;;;;;;;;;;4931901;29;20131;-86
2022/05/10 04:43:37;;;;;;;12.98;4.85;;;;;;;;;;4897776;29;20044;-85
2022/05/10 04:46:05;;;;;;;12.35;4.90;;;;;;;;;;4898018;29;20028;-84
2022/05/10 04:48:32;;;;;;;14.38;6.25;;;;;;;;;;4896791;29;20040;-83
2022/05/10 04:50:58;;;;;;;9.88;4.63;;;;;;;;;;4912328;29;20024;-84
2022/05/10 04:53:23;;;;;;;11.40;5.43;;;;;;;;;;4881423;29;20409;-84
2022/05/10 04:55:49;;;;;;;10.65;6.03;;;;;;;;;;4913103;29;20115;-84
2022/05/10 04:58:15;;;;;;;7.82;4.65;;;;;;;;;;4905670;29;20028;-86
2022/05/10 05:00:40;;;;;;;10.10;4.57;;;;;;;;;;4932282;29;20457;-86
2022/05/10 05:03:06;;;;;;;12.05;4.70;;;;;;;;;;4915705;29;20110;-86
2022/05/10 05:05:31;;;;;;;13.82;5.45;;;;;;;;;;4915826;29;20610;-87
2022/05/10 05:07:57;;;;;;;10.05;4.80;;;;;;;;;;4916958;29;20028;-83
2022/05/10 05:10:23;;;;;;;13.43;4.75;;;;;;;;;;4931003;29;20032;-85
2022/05/10 05:12:49;;;;;;;9.10;4.55;;;;;;;;;;4897951;29;20054;-86
2022/05/10 05:15:14;;;;;;;7.47;4.63;;;;;;;;;;4924615;29;20408;-88
2022/05/10 05:17:40;;;;;;;9.35;4.68;;;;;;;;;;4897259;29;20036;-89
2022/05/10 05:20:09;;;;;;;9.57;4.32;;;;;;;;;;4882361;29;20527;-86
2022/05/10 05:22:34;;;;;;;9.77;4.53;;;;;;;;;;4897595;29;20044;-86
2022/05/10 05:25:00;;;;;;;11.23;4.55;;;;;;;;;;4896063;29;20568;-86
2022/05/10 05:27:25;;;;;;;12.82;5.10;;;;;;;;;;4897574;29;20496;-86
2022/05/10 05:29:52;;;;;;;8.07;3.75;;;;;;;;;;4894473;29;20032;-88
2022/05/10 05:32:21;;;;;;;8.23;4.25;;;;;;;;;;4910962;29;20024;-89
2022/05/10 05:34:46;;;;;;;;;;;;;;;;;;4915015;29;20500;-84
2022/05/10 05:39:57;;;;;;;12.20;5.15;;;;;;;;;;4930720;29;20063;-82
2022/05/10 05:42:23;;;;;;;13.98;5.40;;;;;;;;;;4930214;29;20150;-82
2022/05/10 05:44:50;;;;;;;8.40;4.43;;;;;;;;;;4914020;29;20032;-81
2022/05/10 05:47:15;;;;;;;8.45;4.40;;;;;;;;;;4915398;29;20020;-85
2022/05/10 05:49:44;;;;;;;9.18;5.10;;;;;;;;;;4930299;29;20028;-89
2022/05/10 05:52:11;;;;;;;9.52;4.45;;;;;;;;;;4915635;29;20392;-84
2022/05/10 05:54:37;;;;;;;9.60;4.90;;;;;;;;;;4930134;29;20071;-84
2022/05/10 05:57:04;;;;;;;7.05;4.28;;;;;;;;;;4930487;29;20472;-84
2022/05/10 05:59:30;;;;;;;11.40;5.68;;;;;;;;;;4915660;29;20032;-84
2022/05/10 06:01:55;;;;;;;11.38;4.72;;;;;;;;;;4914340;29;20567;-86
2022/05/10 06:04:21;;;;;;;10.30;5.65;;;;;;;;;;4913822;29;20125;-86
2022/05/10 06:06:47;;;;;;;9.98;4.25;;;;;;;;;;4895731;29;20076;-86
2022/05/10 06:09:13;;;;;;;13.10;4.90;;;;;;;;;;4895815;29;20139;-85
2022/05/10 06:11:39;;;;;;;9.15;5.18;;;;;;;;;;4895890;29;20100;-87
2022/05/10 06:14:05;;;;;;;11.70;4.97;;;;;;;;;;4897144;29;20092;-87
2022/05/10 06:16:31;;;;;;;13.63;4.93;;;;;;;;;;4895576;29;20509;-86
2022/05/10 06:18:56;;;;;;;11.85;5.45;;;;;;;;;;4910936;29;20060;-85
2022/05/10 06:21:22;;;;;;;17.55;5.05;;;;;;;;;;4887863;29;20039;-86
2022/05/10 06:23:51;;;;;;;16.08;5.38;;;;;;;;;;4898238;29;20127;-87
2022/05/10 06:26:16;;;;;;;9.93;5.20;;;;;;;;;;4898669;29;20060;-87
2022/05/10 06:28:45;;;;;;;11.73;4.53;;;;;;;;;;4898640;29;20154;-87
2022/05/10 06:31:11;;;;;;;;;;;;;;;;;;4903383;29;20032;-91
2022/05/10 06:33:39;;;;;;;14.32;4.20;;;;;;;;;;4899720;29;19911;-85
2022/05/10 06:36:05;;;;;;;13.27;5.43;;;;;;;;;;4898472;29;20039;-84
2022/05/10 06:38:34;;;;;;;9.57;5.40;;;;;;;;;;4908491;29;20040;-88
2022/05/10 06:41:01;;;;;;;10.32;4.90;;;;;;;;;;4899752;29;20580;-89
2022/05/10 06:43:28;;;;;;;7.72;4.60;;;;;;;;;;4914591;29;20055;-89
2022/05/10 06:46:01;;;;;;;8.65;4.63;;;;;;;;;;4914385;29;20503;-85
2022/05/10 06:48:26;;;;;;;8.35;4.18;;;;;;;;;;4898486;29;20029;-86
2022/05/10 06:50:52;;;;;;;9.60;4.50;;;;;;;;;;4899074;29;20400;-86
2022/05/10 06:53:18;;;;;;;14.15;4.65;;;;;;;;;;4909824;29;20020;-85
2022/05/10 06:55:46;;;;;;;16.00;4.65;;;;;;;;;;4902529;29;20511;-85
2022/05/10 06:58:12;;;;;;;12.88;4.45;;;;;;;;;;4895825;29;20044;-85
2022/05/10 07:00:40;;;;;;;9.02;4.57;;;;;;;;;;4880042;29;20489;-86
2022/05/10 07:03:10;;;;;;;17.50;4.40;;;;;;;;;;4880025;29;20033;-83
2022/05/10 07:05:35;;;;;;;6.55;4.10;;;;;;;;;;4880758;29;20085;-85
2022/05/10 07:08:01;;;;;;;11.20;4.88;;;;;;;;;;4895672;29;20090;-86
2022/05/10 07:10:26;;;;;;;7.15;3.88;;;;;;;;;;4883470;29;20114;-87
2022/05/10 07:12:53;;;;;;;7.18;3.67;;;;;;;;;;4909651;29;20029;-84
2022/05/10 07:15:19;;;;;;;8.52;4.13;;;;;;;;;;4898378;29;20060;-87
2022/05/10 07:17:49;;;;;;;8.77;4.28;;;;;;;;;;4914887;29;20060;-88
2022/05/10 07:20:15;;;;;;;10.07;3.90;;;;;;;;;;4899331;29;20091;-87
2022/05/10 07:22:40;;;;;;;7.57;4.00;;;;;;;;;;4883056;29;20040;-85
2022/05/10 07:25:06;;;;;;;11.25;4.55;;;;;;;;;;4882996;29;20406;-87
2022/05/10 07:27:32;;;;;;;11.88;3.90;;;;;;;;;;4889595;29;20032;-84
2022/05/10 07:29:58;;;;;;;9.63;4.07;;;;;;;;;;4909346;29;20028;-84
2022/05/10 07:32:24;;;;;;;11.90;3.90;;;;;;;;;;4917118;29;20036;-84
2022/05/10 07:34:50;;;;;;;12.80;4.03;;;;;;;;;;4917775;29;20040;-84
2022/05/10 07:37:15;;;;;;;8.80;3.70;;;;;;;;;;4901418;29;20084;-82
2022/05/10 07:39:41;;;;;;;8.90;4.25;;;;;;;;;;4917034;29;20056;-82
2022/05/10 07:42:06;;;;;;;10.40;4.15;;;;;;;;;;4900319;29;20043;-83
2022/05/10 07:44:32;;;;;;;8.98;3.80;;;;;;;;;;4913623;29;20126;-83
2022/05/10 07:46:58;;;;;;;8.63;3.75;;;;;;;;;;4897988;29;20124;-82
2022/05/10 07:49:23;;;;;;;11.93;4.22;;;;;;;;;;4897367;29;20029;-83
2022/05/10 07:51:49;;;;;;;6.97;4.22;;;;;;;;;;4882778;29;20040;-89
2022/05/10 07:54:14;;;;;;;8.82;3.80;;;;;;;;;;4884598;29;20032;-83
2022/05/10 07:56:41;;;;;;;8.93;4.22;;;;;;;;;;4924754;29;20028;-85
2022/05/10 07:59:07;;;;;;;17.00;4.20;;;;;;;;;;4931490;23;20048;-76
2022/05/10 08:01:32;;;;;;;10.77;5.13;;;;;;;;;;4937299;29;20032;-80
2022/05/10 08:03:58;;;;;;;10.98;4.50;;;;;;;;;;4937136;29;20031;-79
2022/05/10 08:06:24;;;;;;;10.25;4.35;;;;;;;;;;4936376;29;20491;-79
2022/05/10 08:08:50;;;;;;;10.10;4.30;;;;;;;;;;4937720;29;20036;-79
2022/05/10 08:11:15;;;;;;;8.45;4.30;;;;;;;;;;4937145;29;20564;-79
2022/05/10 08:13:41;;;;;;;9.05;3.78;;;;;;;;;;4916515;29;20445;-80
2022/05/10 08:16:08;;;;;;;10.63;4.10;;;;;;;;;;4918260;29;20128;-78
2022/05/10 08:18:35;;;;;;;8.70;4.22;;;;;;;;;;4912830;29;20044;-79
2022/05/10 08:21:01;;;;;;;13.52;3.53;;;;;;;;;;4911733;29;20024;-80
2022/05/10 08:23:31;;;;;;;10.57;4.22;;;;;;;;;;4908275;29;20194;-78
2022/05/10 08:25:58;;;;;;;16.45;4.25;;;;;;;;;;4921832;29;20084;-79
2022/05/10 08:28:24;;;;;;;12.20;4.07;;;;;;;;;;4906946;29;20617;-79
2022/05/10 08:30:51;;;;;;;11.95;3.90;;;;;;;;;;4925921;29;20119;-79
2022/05/10 08:33:20;;;;;;;9.45;3.80;;;;;;;;;;4916658;29;20103;-79
2022/05/10 08:35:50;;;;;;;8.68;3.92;;;;;;;;;;4909263;29;20469;-77
2022/05/10 08:38:17;;;;;;;20.02;4.90;;;;;;;;;;4913495;29;20024;-78
2022/05/10 08:40:48;;;;;;;7.13;3.33;;;;;;;;;;4901065;29;20044;-81
2022/05/10 08:43:20;;;;;;;9.80;3.85;;;;;;;;;;4911969;29;20117;-78
2022/05/10 08:45:46;;;;;;;12.52;3.90;;;;;;;;;;4888594;29;20111;-79
2022/05/10 08:48:12;;;;;;;17.38;3.83;;;;;;;;;;4904692;29;20063;-78
2022/05/10 08:50:39;;;;;;;9.65;3.80;;;;;;;;;;4901168;29;20048;-78
2022/05/10 08:53:06;;;;;;;10.70;3.72;;;;;;;;;;4896413;29;20044;-81
2022/05/10 08:55:35;;;;;;;18.80;4.05;;;;;;;;;;4896942;29;20051;-79
2022/05/10 08:58:09;;;;;;;11.13;4.13;;;;;;;;;;4897014;29;20127;-78
2022/05/10 09:00:38;;;;;;;16.92;4.00;;;;;;;;;;4895854;29;20561;-79
2022/05/10 09:03:13;;;;;;;8.50;3.70;;;;;;;;;;4907961;29;20107;-81
2022/05/10 09:05:42;;;;;;;8.07;3.20;;;;;;;;;;4915276;29;20123;-79
2022/05/10 09:08:28;;;;;;;8.90;3.40;;;;;;;;;;4915080;29;20119;-78
2022/05/10 09:10:57;;;;;;;13.25;3.50;;;;;;;;;;4921879;29;20040;-78
2022/05/10 09:13:23;;;;;;;7.68;3.40;;;;;;;;;;4913998;29;20028;-79
2022/05/10 09:15:55;;;;;;;12.68;4.72;;;;;;;;;;4915056;29;20062;-79
2022/05/10 09:18:25;;;;;;;7.53;2.72;;;;;;;;;;4924958;29;20123;-77
2022/05/10 09:21:02;;;;;;;9.35;3.30;;;;;;;;;;4910375;29;20048;-78
2022/05/10 09:23:35;;;;;;;10.43;3.15;;;;;;;;;;4908912;29;20106;-80
2022/05/10 09:26:01;;;;;;;10.30;2.78;;;;;;;;;;4930931;29;20047;-80
2022/05/10 09:28:36;;;;;;;7.47;3.17;;;;;;;;;;4914899;29;20404;-80
2022/05/10 09:36:52;;;;;;;10.02;3.15;;;;;;;;;;4930408;29;20032;-80
2022/05/10 09:39:20;;;;;;;7.07;2.92;;;;;;;;;;4916024;29;20502;-79
2022/05/10 09:41:47;;;;;;;5.30;2.50;;;;;;;;;;4929344;29;20554;-79
2022/05/10 09:44:13;;;;;;;5.65;2.60;;;;;;;;;;4922369;29;20028;-79
2022/05/10 09:46:39;;;;;;;12.38;3.00;;;;;;;;;;4916431;29;20472;-79
2022/05/10 09:49:04;;;;;;;7.38;2.90;;;;;;;;;;4930700;29;20092;-79
2022/05/10 09:51:37;;;;;;;9.15;2.88;;;;;;;;;;4914815;29;20032;-80
2022/05/10 09:54:04;;;;;;;14.82;3.78;;;;;;;;;;4929589;29;20456;-80
2022/05/10 09:56:34;;;;;;;7.88;2.88;;;;;;;;;;4930227;29;20400;-80
2022/05/10 09:59:03;;;;;;;9.80;2.92;;;;;;;;;;4923875;29;20122;-80
2022/05/10 10:01:40;;;;;;;7.35;3.13;;;;;;;;;;4928447;29;20063;-80
2022/05/10 10:04:23;;;;;;;6.10;2.70;;;;;;;;;;4914497;29;20036;-80
2022/05/10 10:07:07;;;;;;;4.53;2.20;;;;;;;;;;4930431;29;20032;-80
2022/05/10 10:09:38;;;;;;;5.07;1.92;;;;;;;;;;4930622;29;20039;-80
2022/05/10 10:12:26;;;;;;;8.35;2.40;;;;;;;;;;4914737;29;20044;-80
2022/05/10 10:14:52;;;;;;;6.15;2.20;;;;;;;;;;4921818;29;20024;-81
2022/05/10 10:17:22;;;;;;;4.85;2.25;;;;;;;;;;4911134;29;20045;-80
2022/05/10 10:20:11;;;;;;;4.53;2.60;;;;;;;;;;4895297;29;20028;-80
2022/05/10 10:22:43;;;;;;;4.57;2.47;;;;;;;;;;4897626;29;20082;-79
2022/05/10 10:25:27;;;;;;;4.28;2.33;;;;;;;;;;4895122;29;20120;-80
2022/05/10 10:28:15;;;;;;;8.43;2.40;;;;;;;;;;4879685;29;20041;-80
2022/05/10 10:30:50;;;;;;;7.25;2.40;;;;;;;;;;4913757;29;20069;-81
2022/05/10 10:33:16;;;;;;;4.55;2.55;;;;;;;;;;4898345;29;20036;-80
2022/05/10 10:35:42;;;;;;;3.90;1.83;;;;;;;;;;4883015;29;20392;-80
2022/05/10 10:38:14;;;;;;;5.10;2.42;;;;;;;;;;4898861;29;20043;-80
2022/05/10 10:40:42;;;;;;;8.20;2.45;;;;;;;;;;4930138;29;20033;-80
2022/05/10 10:43:14;;;;;;;5.57;2.28;;;;;;;;;;4913826;29;20055;-81
2022/05/10 10:45:47;;;;;;;6.00;2.13;;;;;;;;;;4913225;29;20032;-81
2022/05/10 10:48:34;;;;;;;4.82;2.00;;;;;;;;;;4929964;29;20023;-81
2022/05/10 10:51:00;;;;;;;4.22;1.90;;;;;;;;;;4901529;29;20044;-80
2022/05/10 10:53:27;;;;;;;4.10;2.35;;;;;;;;;;4933065;29;20516;-80
2022/05/10 10:55:58;;;;;;;5.07;2.08;;;;;;;;;;4933598;29;20071;-81
2022/05/10 10:58:42;;;;;;;6.55;2.00;;;;;;;;;;4918678;29;20480;-81
2022/05/10 11:01:07;;;;;;;5.53;2.17;;;;;;;;;;4916692;29;20043;-81
2022/05/10 11:03:38;;;;;;;6.03;2.22;;;;;;;;;;4916338;29;20392;-81
2022/05/10 11:06:04;;;;;;;12.95;2.28;;;;;;;;;;4898652;29;20123;-80
2022/05/10 11:08:41;;;;;;;5.88;2.42;;;;;;;;;;4914385;29;20460;-80
2022/05/10 11:11:25;;;;;;;6.60;2.17;;;;;;;;;;4899861;29;20029;-80
2022/05/10 11:14:05;;;;;;;5.85;2.13;;;;;;;;;;4898049;29;20575;-80
2022/05/10 11:16:48;;;;;;;4.03;2.00;;;;;;;;;;4898629;29;20055;-79
2022/05/10 11:19:14;;;;;;;5.97;2.20;;;;;;;;;;4883971;29;20508;-80
2022/05/10 11:21:39;;;;;;;5.38;2.20;;;;;;;;;;4929603;29;20037;-79
2022/05/10 11:24:11;;;;;;;6.05;1.88;;;;;;;;;;4913667;29;20033;-80
2022/05/10 11:26:37;;;;;;;6.03;2.20;;;;;;;;;;4899271;29;20091;-79
2022/05/10 11:29:10;;;;;;;6.47;2.25;;;;;;;;;;4913867;29;20456;-80
2022/05/10 11:31:54;;;;;;;4.80;2.10;;;;;;;;;;4913953;29;20037;-81
2022/05/10 11:34:27;;;;;;;5.55;2.03;;;;;;;;;;4899124;29;20031;-79
2022/05/10 11:37:00;;;;;;;4.35;1.75;;;;;;;;;;4913421;29;20025;-81
2022/05/10 11:39:38;;;;;;;8.95;2.20;;;;;;;;;;4916884;29;20052;-81
2022/05/10 11:42:23;;;;;;;5.45;1.90;;;;;;;;;;4882381;29;20047;-81
2022/05/10 11:45:01;;;;;;;5.78;1.90;;;;;;;;;;4913152;29;20033;-81
2022/05/10 11:47:27;;;;;;;6.13;2.05;;;;;;;;;;4913410;29;20628;-80
2022/05/10 11:50:11;;;;;;;4.82;2.10;;;;;;;;;;4897645;29;20041;-80
2022/05/10 11:52:43;;;;;;;3.35;1.65;;;;;;;;;;4913471;29;20072;-82
2022/05/10 11:55:16;;;;;;;3.70;2.28;;;;;;;;;;4907316;29;20039;-82
2022/05/10 11:57:43;;;;;;;4.15;1.77;;;;;;;;;;4916578;29;20068;-81
2022/05/10 12:00:27;;;;;;;6.10;1.80;;;;;;;;;;4900172;29;20039;-81
2022/05/10 12:02:54;;;;;;;8.63;2.10;;;;;;;;;;4916068;29;20389;-80
2022/05/10 12:05:23;;;;;;;4.85;1.95;;;;;;;;;;4916399;29;20111;-81
2022/05/10 12:07:48;;;;;;;6.75;2.20;;;;;;;;;;4916423;29;20028;-81
2022/05/10 12:10:29;;;;;;;6.28;2.08;;;;;;;;;;4916325;29;20039;-80
2022/05/10 12:12:56;;;;;;;4.25;1.88;;;;;;;;;;4914912;29;20040;-80
2022/05/10 12:21:22;;;;;;;3.42;1.83;;;;;;;;;;4897820;29;20097;-80
2022/05/10 12:24:03;;;;;;;5.15;1.70;;;;;;;;;;4879391;29;20140;-81
2022/05/10 12:26:43;;;;;;;4.53;2.05;;;;;;;;;;4898167;29;20036;-80
2022/05/10 12:29:34;;;;;;;5.07;1.83;;;;;;;;;;4907207;29;20024;-80
2022/05/10 12:32:09;;;;;;;5.38;1.60;;;;;;;;;;4923790;29;20114;-80
2022/05/10 12:34:43;;;;;;;6.85;1.40;;;;;;;;;;4915157;29;20130;-81
2022/05/10 12:37:36;;;;;;;5.07;1.55;;;;;;;;;;4884751;29;20040;-81
2022/05/10 12:40:10;;;;;;;6.75;2.00;;;;;;;;;;4900127;29;20040;-81
2022/05/10 12:42:47;;;;;;;6.88;1.85;;;;;;;;;;4899862;29;20060;-81
2022/05/10 12:45:32;;;;;;;4.63;1.75;;;;;;;;;;4898915;29;20035;-81
2022/05/10 12:48:10;;;;;;;7.90;2.20;;;;;;;;;;4912176;29;20029;-82
2022/05/10 12:50:37;;;;;;;6.22;1.70;;;;;;;;;;4881088;29;20028;-82
2022/05/10 12:53:09;;;;;;;3.78;1.70;;;;;;;;;;4896219;29;20060;-82
2022/05/10 12:55:36;;;;;;;4.63;1.95;;;;;;;;;;4912230;29;20060;-81
2022/05/10 12:58:05;;;;;;;3.15;1.80;;;;;;;;;;4927741;29;20304;-80
2022/05/10 13:00:44;;;;;;;5.53;2.38;;;;;;;;;;4912230;29;20043;-81
2022/05/10 13:03:13;;;;;;;9.02;1.90;;;;;;;;;;4907247;29;20043;-81
2022/05/10 13:05:58;;;;;;;7.25;1.92;;;;;;;;;;4916519;29;20035;-87
2022/05/10 13:08:34;;;;;;;6.45;1.98;;;;;;;;;;4915115;29;20032;-86
2022/05/10 13:11:01;;;;;;;5.50;2.22;;;;;;;;;;4915529;29;20139;-83
2022/05/10 13:13:31;;;;;;;4.85;2.10;;;;;;;;;;4894888;29;20044;-83
2022/05/10 13:15:58;;;;;;;4.40;1.90;;;;;;;;;;4927512;29;20107;-82
2022/05/10 13:18:25;;;;;;;5.85;2.38;;;;;;;;;;4904978;29;20051;-83
2022/05/10 13:20:52;;;;;;;7.82;1.83;;;;;;;;;;4915630;29;20036;-80
2022/05/10 13:23:18;;;;;;;7.03;2.07;;;;;;;;;;4913187;29;20044;-80
2022/05/10 13:25:45;;;;;;;3.90;2.05;;;;;;;;;;4909282;29;20287;-79
2022/05/10 13:28:18;;;;;;;6.13;2.08;;;;;;;;;;4902309;29;20124;-80
2022/05/10 13:30:45;;;;;;;5.90;2.13;;;;;;;;;;4914364;29;20028;-86
2022/05/10 13:33:21;;;;;;;3.88;1.77;;;;;;;;;;4918977;29;20028;-77
2022/05/10 13:35:48;;;;;;;8.68;2.25;;;;;;;;;;4927801;29;20147;-78
2022/05/10 13:38:15;;;;;;;5.65;1.75;;;;;;;;;;4912498;29;20020;-78
2022/05/10 13:40:44;;;;;;;4.22;1.70;;;;;;;;;;4913769;29;20060;-77
2022/05/10 13:43:18;;;;;;;21.50;2.78;;;;;;;;;;4907008;29;20024;-77
2022/05/10 13:45:50;;;;;;;6.22;2.60;;;;;;;;;;4900828;29;20047;-77
2022/05/10 13:48:18;;;;;;;10.02;1.95;;;;;;;;;;4915882;29;20035;-74
2022/05/10 13:52:03;;;;;;;6.25;2.50;;;;;;;;;;5125050;27;20399;-73
2022/05/10 13:54:34;;;;;;;4.45;2.22;;;;;;;;;;5107258;28;20526;-73
2022/05/10 13:57:10;;;;;;;5.28;1.95;;;;;;;;;;5107789;28;20066;-72
2022/05/10 13:59:36;;;;;;;3.97;2.30;;;;;;;;;;5116820;22;20039;-75
2022/05/10 14:02:03;;;;;;;4.32;2.17;;;;;;;;;;5091936;28;20516;-74
2022/05/10 14:04:30;;;;;;;5.80;1.83;;;;;;;;;;5107916;28;20028;-74
2022/05/10 14:06:57;;;;;;;5.38;2.25;;;;;;;;;;5102030;28;20061;-74
2022/05/10 14:09:24;;;;;;;4.93;2.25;;;;;;;;;;5102516;28;20127;-75
2022/05/10 14:11:53;;;;;;;6.47;2.25;;;;;;;;;;5092645;28;20111;-74
2022/05/10 14:14:23;;;;;;;4.55;2.58;;;;;;;;;;5099365;28;20539;-73
2022/05/10 14:16:48;;;;;;;4.00;1.92;;;;;;;;;;5088714;28;20031;-74
2022/05/10 14:19:20;;;;;;;;;;;;;;;;;;5088413;28;20021;-74
2022/05/10 14:21:48;;;;;;;6.85;2.60;;;;;;;;;;5104679;28;19908;-75
2022/05/10 14:24:23;;;;;;;5.30;2.30;;;;;;;;;;5094821;28;20035;-74
2022/05/10 14:26:51;;;;;;;5.43;2.30;;;;;;;;;;5094526;28;20032;-74
2022/05/10 14:29:20;;;;;;;5.15;2.30;;;;;;;;;;5103129;28;20028;-73
2022/05/10 14:32:11;;;;;;;6.75;2.40;;;;;;;;;;5093759;28;20032;-75
2022/05/10 14:34:54;;;;;;;3.75;1.95;;;;;;;;;;5081762;28;20358;-74
2022/05/10 14:37:26;;;;;;;9.88;3.47;;;;;;;;;;5109114;28;20320;-76
2022/05/10 14:39:52;;;;;;;7.50;2.38;;;;;;;;;;5108946;28;20030;-73
2022/05/10 14:42:34;;;;;;;5.82;2.67;;;;;;;;;;5090404;28;20035;-74
2022/05/10 14:45:20;;;;;;;5.45;2.50;;;;;;;;;;5090214;28;20032;-74
2022/05/10 14:47:46;;;;;;;5.05;2.25;;;;;;;;;;5104821;28;20032;-74
2022/05/10 14:50:27;;;;;;;4.30;2.65;;;;;;;;;;5098570;28;20422;-74
2022/05/10 14:53:15;;;;;;;4.78;2.35;;;;;;;;;;5090792;28;20036;-75
2022/05/10 14:55:42;;;;;;;6.55;2.35;;;;;;;;;;5090417;28;20422;-75
2022/05/10 14:58:12;;;;;;;8.43;2.97;;;;;;;;;;5090414;28;20036;-75
2022/05/10 15:00:40;;;;;;;3.35;1.98;;;;;;;;;;5107047;28;20035;-74
2022/05/10 15:03:15;;;;;;;6.70;2.50;;;;;;;;;;5094664;28;20028;-74
2022/05/10 15:05:42;;;;;;;4.25;2.42;;;;;;;;;;5085650;28;20108;-74
2022/05/10 15:08:09;;;;;;;3.50;2.33;;;;;;;;;;5076593;28;20559;-73
2022/05/10 15:10:35;;;;;;;4.82;2.50;;;;;;;;;;5094285;28;20028;-73
2022/05/10 15:13:03;;;;;;;5.97;2.45;;;;;;;;;;5094272;28;20086;-74
2022/05/10 15:15:33;;;;;;;6.53;2.55;;;;;;;;;;5094229;28;20027;-74
2022/05/10 15:20:47;;;;;;;4.28;2.30;;;;;;;;;;5082164;28;20032;-74